Pagrindinis puslapis
METAR-TAF:

METAR-TAF

Oro uostai :

South Naknek, Aliaska, Jungtinės Amerikos Valstijos

platuma: 58-42-08N, ilguma: 157-00-09W, Aukštis: 49 m

Dabartinis oras

Ataskaita buvo paskelbta 53 minutes, ne 04:56 UTC
Vėjas 11 kt iš Šiaurės
Temperatūra 7°C
Drėgmė 76%
Slėgis 998 hPa
Matomumas: 16.1 km
Giedras dangus

METAR: PFWS 210456Z AUTO 01011KT 10SM CLR 07/03 A2946 RMK AO2 SLP982 T00720033

Laikas: 21:49 (05:49 UTC)


TAF: trūkstamas

Orai ataskaitas ir orų prognozės (METAR, TAF).

turimą stotys yra geltonos ir raudonos taškus žemėlapyje.

Perkelti pele per norėdami pamatyti stoties vardą.

Tada spustelėkite, norėdami matyti oro stebėjimo ir prognozės.

Norėdami pakeisti žemėlapį: spustelėkite ant žalios mygtukų su juodo kryžiaus žemyn,; žalią mygtuką su brūkšneliu, jei norite nutolinti; arba žalių rodyklių gretimoms žemėlapius.


METAR-TAF: